Time;durP1;ratioP1;P1;durP2;ratioP2;P2;SDS_P1;SDS_P2;PMS_P1;PMS_P2;Temp;Humidity;BMP_temperature;BMP_pressure;BME280_temperature;BME280_humidity;BME280_pressure;Samples;Min_cycle;Max_cycle;Signal;HPM_P1;HPM_P2
2021/10/20 00:00:09;;;;;;;8.65;3.08;;;;;;;;;;5935747;24;20030;-59
2021/10/20 00:02:36;;;;;;;7.82;3.33;;;;;;;;;;5940173;24;20121;-60
2021/10/20 00:05:05;;;;;;;7.97;3.13;;;;;;;;;;5983331;23;20033;-57
2021/10/20 00:07:32;;;;;;;8.73;3.00;;;;;;;;;;5968210;24;20029;-54
2021/10/20 00:10:00;;;;;;;6.35;3.17;;;;;;;;;;5964848;23;20040;-58
2021/10/20 00:12:28;;;;;;;9.13;3.33;;;;;;;;;;5993267;23;20037;-57
2021/10/20 00:14:54;;;;;;;10.63;3.33;;;;;;;;;;5990161;23;20030;-57
2021/10/20 00:17:21;;;;;;;9.73;3.75;;;;;;;;;;5967855;24;20026;-55
2021/10/20 00:19:50;;;;;;;9.18;3.22;;;;;;;;;;5966729;24;20157;-56
2021/10/20 00:22:17;;;;;;;9.48;3.03;;;;;;;;;;5966846;23;20053;-56
2021/10/20 00:24:44;;;;;;;6.88;3.25;;;;;;;;;;5984502;23;20038;-58
2021/10/20 00:27:12;;;;;;;7.88;3.42;;;;;;;;;;5954157;24;20042;-58
2021/10/20 00:29:38;;;;;;;5.60;2.90;;;;;;;;;;5966444;23;20022;-56
2021/10/20 00:32:05;;;;;;;6.18;2.90;;;;;;;;;;5970010;23;20029;-57
2021/10/20 00:34:32;;;;;;;6.90;3.30;;;;;;;;;;5967535;23;20045;-58
2021/10/20 00:36:59;;;;;;;6.75;3.08;;;;;;;;;;5968244;24;20085;-57
2021/10/20 00:39:25;;;;;;;13.57;3.20;;;;;;;;;;5969981;24;20163;-59
2021/10/20 00:41:52;;;;;;;11.13;3.30;;;;;;;;;;5966810;23;20038;-57
2021/10/20 00:44:20;;;;;;;6.10;2.90;;;;;;;;;;5967283;23;20029;-56
2021/10/20 00:46:47;;;;;;;8.70;3.10;;;;;;;;;;5966120;24;20030;-56
2021/10/20 00:49:14;;;;;;;8.52;3.08;;;;;;;;;;5970313;24;20054;-57
2021/10/20 00:51:40;;;;;;;6.43;3.05;;;;;;;;;;5993149;23;20038;-57
2021/10/20 00:54:07;;;;;;;6.55;2.78;;;;;;;;;;5970930;23;20022;-57
2021/10/20 00:56:34;;;;;;;6.97;2.80;;;;;;;;;;5966535;24;20030;-57
2021/10/20 00:59:00;;;;;;;8.38;2.97;;;;;;;;;;5996096;23;20038;-58
2021/10/20 01:01:28;;;;;;;6.10;2.60;;;;;;;;;;5968557;24;20034;-57
2021/10/20 01:03:55;;;;;;;10.67;3.60;;;;;;;;;;5993138;23;20077;-57
2021/10/20 01:06:21;;;;;;;5.93;2.72;;;;;;;;;;5965571;24;20267;-58
2021/10/20 01:08:48;;;;;;;6.88;2.90;;;;;;;;;;5970592;24;20034;-58
2021/10/20 01:11:15;;;;;;;7.93;2.95;;;;;;;;;;5967623;23;20030;-55
2021/10/20 01:13:44;;;;;;;6.55;2.95;;;;;;;;;;5970573;23;20045;-57
2021/10/20 01:16:11;;;;;;;4.95;2.50;;;;;;;;;;5965807;23;20029;-58
2021/10/20 01:18:39;;;;;;;7.78;3.03;;;;;;;;;;5995021;23;20100;-58
2021/10/20 01:21:06;;;;;;;7.53;3.25;;;;;;;;;;5969474;24;20041;-58
2021/10/20 01:23:34;;;;;;;6.80;2.53;;;;;;;;;;5968134;23;20029;-59
2021/10/20 01:26:01;;;;;;;5.90;2.60;;;;;;;;;;5969624;24;20100;-58
2021/10/20 01:28:27;;;;;;;6.18;2.50;;;;;;;;;;5965990;23;20062;-58
2021/10/20 01:30:54;;;;;;;9.07;2.75;;;;;;;;;;5979412;23;20018;-58
2021/10/20 01:33:20;;;;;;;9.23;3.00;;;;;;;;;;5966149;23;20038;-59
2021/10/20 01:35:54;;;;;;;15.52;3.03;;;;;;;;;;5997433;23;20034;-57
2021/10/20 01:38:20;;;;;;;7.75;3.03;;;;;;;;;;5967769;24;20026;-58
2021/10/20 01:40:48;;;;;;;5.00;2.55;;;;;;;;;;5967700;24;20046;-53
2021/10/20 01:43:14;;;;;;;6.10;2.93;;;;;;;;;;5968027;24;20034;-58
2021/10/20 01:45:43;;;;;;;7.78;2.90;;;;;;;;;;5994245;23;20053;-57
2021/10/20 01:48:09;;;;;;;12.55;3.03;;;;;;;;;;5967027;24;20072;-56
2021/10/20 01:50:36;;;;;;;7.50;2.92;;;;;;;;;;5994374;23;20030;-55
2021/10/20 01:53:02;;;;;;;4.80;2.50;;;;;;;;;;5966101;24;20049;-58
2021/10/20 01:55:29;;;;;;;7.07;2.60;;;;;;;;;;5970335;24;20054;-57
2021/10/20 01:57:57;;;;;;;6.55;2.90;;;;;;;;;;5967777;23;20049;-57
2021/10/20 02:00:23;;;;;;;12.25;3.50;;;;;;;;;;5968736;23;20030;-58
2021/10/20 02:02:50;;;;;;;6.70;2.90;;;;;;;;;;5992444;23;20033;-58
2021/10/20 02:05:16;;;;;;;7.20;3.10;;;;;;;;;;5963711;23;20054;-58
2021/10/20 02:07:43;;;;;;;6.97;2.75;;;;;;;;;;5965164;24;20042;-58
2021/10/20 02:10:13;;;;;;;5.65;2.65;;;;;;;;;;5962352;23;20038;-55
2021/10/20 02:12:40;;;;;;;9.20;3.45;;;;;;;;;;5941219;24;20035;-57
2021/10/20 02:15:09;;;;;;;5.93;2.63;;;;;;;;;;5933602;24;20027;-58
2021/10/20 02:17:36;;;;;;;7.18;2.53;;;;;;;;;;5965087;24;20042;-58
2021/10/20 02:20:05;;;;;;;5.85;2.63;;;;;;;;;;5937865;24;20112;-57
2021/10/20 02:22:32;;;;;;;7.05;2.80;;;;;;;;;;5941459;24;20035;-58
2021/10/20 02:24:59;;;;;;;6.35;2.58;;;;;;;;;;5963286;24;20044;-56
2021/10/20 02:27:26;;;;;;;6.20;2.95;;;;;;;;;;5943298;24;20070;-58
2021/10/20 02:29:52;;;;;;;5.07;2.50;;;;;;;;;;5936510;24;20049;-58
2021/10/20 02:32:20;;;;;;;5.38;2.78;;;;;;;;;;5967098;24;20046;-56
2021/10/20 02:34:47;;;;;;;8.83;2.90;;;;;;;;;;5962333;24;20030;-57
2021/10/20 02:37:14;;;;;;;6.63;2.80;;;;;;;;;;5964783;23;20280;-57
2021/10/20 02:39:41;;;;;;;8.68;2.88;;;;;;;;;;5962298;24;20026;-57
2021/10/20 02:42:08;;;;;;;6.95;2.53;;;;;;;;;;5937566;23;20042;-55
2021/10/20 02:44:34;;;;;;;7.75;2.90;;;;;;;;;;5936486;24;20073;-58
2021/10/20 02:47:01;;;;;;;8.40;2.75;;;;;;;;;;5964829;24;20051;-57
2021/10/20 02:49:29;;;;;;;9.23;3.00;;;;;;;;;;5940771;24;20057;-57
2021/10/20 02:51:55;;;;;;;6.93;3.00;;;;;;;;;;5935020;23;20112;-57
2021/10/20 02:54:22;;;;;;;8.55;2.63;;;;;;;;;;5963341;23;20272;-59
2021/10/20 02:56:49;;;;;;;10.00;2.75;;;;;;;;;;5959892;23;20042;-58
2021/10/20 02:59:15;;;;;;;6.95;2.90;;;;;;;;;;5963602;23;20030;-58
2021/10/20 03:01:42;;;;;;;10.43;3.00;;;;;;;;;;5961992;23;20030;-56
2021/10/20 03:04:09;;;;;;;7.38;3.17;;;;;;;;;;5966645;23;20027;-59
2021/10/20 03:06:37;;;;;;;8.55;2.90;;;;;;;;;;5938720;23;20026;-58
2021/10/20 03:09:04;;;;;;;6.53;3.30;;;;;;;;;;5942193;23;20023;-57
2021/10/20 03:11:31;;;;;;;9.15;3.10;;;;;;;;;;5929183;24;20047;-56
2021/10/20 03:13:58;;;;;;;9.15;2.97;;;;;;;;;;5939082;24;20042;-58
2021/10/20 03:16:26;;;;;;;7.93;2.92;;;;;;;;;;5921556;24;20034;-56
2021/10/20 03:18:53;;;;;;;7.95;3.13;;;;;;;;;;5943082;24;20030;-58
2021/10/20 03:21:21;;;;;;;6.43;2.75;;;;;;;;;;5937673;24;20034;-58
2021/10/20 03:23:49;;;;;;;8.60;3.20;;;;;;;;;;5971289;23;20030;-52
2021/10/20 03:26:15;;;;;;;9.18;3.33;;;;;;;;;;5938933;24;20031;-58
2021/10/20 03:28:42;;;;;;;8.23;3.42;;;;;;;;;;5964727;24;20041;-55
2021/10/20 03:31:08;;;;;;;8.75;3.03;;;;;;;;;;5942130;24;20039;-57
2021/10/20 03:33:35;;;;;;;9.05;3.25;;;;;;;;;;5933177;24;20101;-57
2021/10/20 03:36:02;;;;;;;10.07;3.72;;;;;;;;;;5937513;24;20034;-58
2021/10/20 03:38:28;;;;;;;15.07;3.53;;;;;;;;;;5938439;24;20113;-57
2021/10/20 03:40:56;;;;;;;8.27;3.22;;;;;;;;;;5939537;24;20034;-55
2021/10/20 03:43:23;;;;;;;9.13;3.20;;;;;;;;;;5939344;24;20039;-57
2021/10/20 03:45:50;;;;;;;9.57;3.58;;;;;;;;;;5943206;24;20034;-55
2021/10/20 03:48:16;;;;;;;9.80;3.63;;;;;;;;;;5936958;24;20038;-58
2021/10/20 03:50:43;;;;;;;7.35;3.40;;;;;;;;;;5942835;24;20030;-57
2021/10/20 03:53:09;;;;;;;7.22;3.42;;;;;;;;;;5924762;24;20030;-56
2021/10/20 03:55:35;;;;;;;7.78;3.70;;;;;;;;;;5939354;24;20046;-58
2021/10/20 03:58:04;;;;;;;8.45;3.67;;;;;;;;;;5921271;24;20042;-58
2021/10/20 04:00:30;;;;;;;;;;;;;;;;;;5966866;23;20049;-56
2021/10/20 04:02:57;;;;;;;11.88;3.40;;;;;;;;;;5959978;23;19914;-57
2021/10/20 04:05:24;;;;;;;7.78;3.60;;;;;;;;;;5942284;24;20042;-56
2021/10/20 04:07:51;;;;;;;8.02;3.85;;;;;;;;;;5938735;24;20034;-55
2021/10/20 04:10:19;;;;;;;7.72;3.72;;;;;;;;;;5940921;24;20053;-57
2021/10/20 04:12:45;;;;;;;8.23;3.20;;;;;;;;;;5919375;24;20042;-58
2021/10/20 04:15:14;;;;;;;11.80;3.63;;;;;;;;;;5937592;24;20052;-58
2021/10/20 04:17:40;;;;;;;;;;;;;;;;;;5941874;24;20048;-58
2021/10/20 04:20:07;;;;;;;7.63;3.88;;;;;;;;;;5960271;23;20015;-56
2021/10/20 04:22:34;;;;;;;11.30;3.58;;;;;;;;;;5966328;23;20061;-58
2021/10/20 04:25:03;;;;;;;7.38;3.75;;;;;;;;;;5936663;24;20038;-59
2021/10/20 04:27:31;;;;;;;8.10;3.70;;;;;;;;;;5941520;24;20034;-57
2021/10/20 04:29:59;;;;;;;13.32;4.18;;;;;;;;;;5961182;24;20120;-57
2021/10/20 04:32:27;;;;;;;9.17;3.57;;;;;;;;;;5942015;24;20054;-57
2021/10/20 04:34:53;;;;;;;6.85;3.15;;;;;;;;;;5939226;24;20042;-59
2021/10/20 04:37:24;;;;;;;7.10;3.53;;;;;;;;;;5965781;24;20038;-58
2021/10/20 04:39:52;;;;;;;9.07;3.20;;;;;;;;;;5964054;24;20030;-58
2021/10/20 04:42:19;;;;;;;12.57;3.35;;;;;;;;;;5940870;24;20113;-57
2021/10/20 04:44:45;;;;;;;7.97;3.47;;;;;;;;;;5963925;23;20030;-56
2021/10/20 04:47:12;;;;;;;11.27;4.65;;;;;;;;;;5940773;24;20026;-56
2021/10/20 04:49:42;;;;;;;10.63;4.18;;;;;;;;;;5957347;24;20030;-58
2021/10/20 04:52:08;;;;;;;7.15;3.40;;;;;;;;;;5941470;24;20089;-57
2021/10/20 04:54:34;;;;;;;9.43;3.63;;;;;;;;;;5937488;24;20030;-57
2021/10/20 04:57:04;;;;;;;8.73;3.28;;;;;;;;;;5940531;24;20090;-56
2021/10/20 04:59:31;;;;;;;7.70;3.88;;;;;;;;;;5940735;24;20029;-56
2021/10/20 05:01:58;;;;;;;8.60;3.95;;;;;;;;;;5936016;24;20071;-56
2021/10/20 05:04:24;;;;;;;9.57;4.25;;;;;;;;;;5942783;24;20042;-57
2021/10/20 05:06:52;;;;;;;11.85;5.22;;;;;;;;;;5949954;24;20049;-56
2021/10/20 05:09:19;;;;;;;13.00;6.10;;;;;;;;;;5957002;24;20026;-57
2021/10/20 05:11:45;;;;;;;13.18;6.53;;;;;;;;;;5946995;24;20038;-58
2021/10/20 05:14:12;;;;;;;15.32;5.82;;;;;;;;;;5952582;24;20040;-58
2021/10/20 05:16:39;;;;;;;11.55;4.68;;;;;;;;;;5962265;24;20081;-57
2021/10/20 05:19:05;;;;;;;10.27;4.82;;;;;;;;;;5941476;24;20165;-57
2021/10/20 05:21:32;;;;;;;13.90;4.13;;;;;;;;;;5938652;24;20026;-57
2021/10/20 05:24:00;;;;;;;10.00;4.03;;;;;;;;;;5937668;24;20117;-57
2021/10/20 05:26:29;;;;;;;10.37;4.37;;;;;;;;;;5944546;24;20042;-58
2021/10/20 05:28:55;;;;;;;12.32;4.47;;;;;;;;;;5923414;24;20265;-58
2021/10/20 05:31:23;;;;;;;12.57;4.20;;;;;;;;;;5937472;24;20030;-59
2021/10/20 05:33:49;;;;;;;9.05;4.03;;;;;;;;;;5937961;24;20030;-57
2021/10/20 05:36:16;;;;;;;12.23;4.43;;;;;;;;;;5938726;24;20125;-58
2021/10/20 05:38:42;;;;;;;9.27;4.30;;;;;;;;;;5933333;24;20120;-56
2021/10/20 05:41:10;;;;;;;12.55;3.80;;;;;;;;;;5965550;24;20041;-57
2021/10/20 05:43:37;;;;;;;10.10;4.00;;;;;;;;;;5945540;24;20026;-56
2021/10/20 05:46:03;;;;;;;12.10;4.03;;;;;;;;;;5958839;24;20038;-57
2021/10/20 05:48:30;;;;;;;17.70;7.60;;;;;;;;;;5962313;24;20042;-58
2021/10/20 05:50:56;;;;;;;15.05;5.38;;;;;;;;;;5932472;24;20047;-57
2021/10/20 05:53:23;;;;;;;9.82;3.95;;;;;;;;;;5935959;24;20058;-56
2021/10/20 05:55:51;;;;;;;11.10;3.38;;;;;;;;;;5940196;23;20042;-57
2021/10/20 05:58:19;;;;;;;11.05;3.80;;;;;;;;;;5934824;24;20042;-57
2021/10/20 06:00:46;;;;;;;11.57;4.05;;;;;;;;;;5941235;24;20027;-58
2021/10/20 06:03:12;;;;;;;8.02;3.67;;;;;;;;;;5957745;24;20040;-56
2021/10/20 06:05:39;;;;;;;10.23;4.07;;;;;;;;;;5960914;24;20038;-57
2021/10/20 06:08:05;;;;;;;10.60;3.70;;;;;;;;;;5967385;24;20118;-57
2021/10/20 06:10:33;;;;;;;9.60;3.90;;;;;;;;;;5971593;24;20029;-59
2021/10/20 06:12:59;;;;;;;12.30;3.72;;;;;;;;;;5949158;24;20048;-58
2021/10/20 06:15:27;;;;;;;9.18;3.85;;;;;;;;;;5971071;24;20036;-58
2021/10/20 06:17:54;;;;;;;9.73;4.00;;;;;;;;;;5966128;23;20157;-56
2021/10/20 06:20:21;;;;;;;13.80;3.83;;;;;;;;;;5992897;23;20054;-58
2021/10/20 06:22:47;;;;;;;8.55;3.83;;;;;;;;;;5965108;24;20125;-57
2021/10/20 06:25:14;;;;;;;15.95;4.05;;;;;;;;;;5967291;23;20042;-57
2021/10/20 06:27:41;;;;;;;8.90;3.63;;;;;;;;;;5994294;23;20044;-57
2021/10/20 06:30:08;;;;;;;10.30;4.18;;;;;;;;;;5983505;23;20049;-56
2021/10/20 06:32:37;;;;;;;7.65;3.28;;;;;;;;;;5965631;24;20042;-58
2021/10/20 06:35:03;;;;;;;10.88;3.75;;;;;;;;;;5966956;24;20049;-57
2021/10/20 06:37:30;;;;;;;8.07;3.63;;;;;;;;;;5995282;23;20124;-57
2021/10/20 06:40:00;;;;;;;7.53;3.70;;;;;;;;;;5965637;24;20113;-57
2021/10/20 06:42:27;;;;;;;7.80;3.55;;;;;;;;;;5992558;23;20045;-58
2021/10/20 06:44:54;;;;;;;7.25;3.70;;;;;;;;;;6003882;23;20061;-57
2021/10/20 06:47:21;;;;;;;9.60;4.18;;;;;;;;;;5994738;23;20038;-58
2021/10/20 06:49:49;;;;;;;10.20;4.13;;;;;;;;;;5940473;24;20030;-57
2021/10/20 06:52:16;;;;;;;11.07;3.57;;;;;;;;;;5955522;24;20050;-57
2021/10/20 06:54:43;;;;;;;13.85;3.50;;;;;;;;;;5966128;24;20271;-57
2021/10/20 06:57:10;;;;;;;9.17;3.83;;;;;;;;;;5994625;23;20033;-58
2021/10/20 06:59:37;;;;;;;10.75;3.65;;;;;;;;;;5966054;23;20041;-57
2021/10/20 07:02:03;;;;;;;7.72;3.50;;;;;;;;;;5992528;23;20042;-55
2021/10/20 07:04:30;;;;;;;9.07;3.90;;;;;;;;;;5969691;24;20033;-58
2021/10/20 07:06:59;;;;;;;11.32;3.60;;;;;;;;;;6012111;23;20054;-58
2021/10/20 07:09:26;;;;;;;10.93;3.65;;;;;;;;;;5994044;23;20073;-58
2021/10/20 07:11:52;;;;;;;7.63;3.58;;;;;;;;;;5992669;23;20030;-57
2021/10/20 07:14:19;;;;;;;11.10;3.70;;;;;;;;;;5969595;24;20034;-55
2021/10/20 07:16:46;;;;;;;10.05;3.72;;;;;;;;;;5963210;24;20074;-58
2021/10/20 07:19:12;;;;;;;8.02;4.00;;;;;;;;;;5964553;24;20093;-58
2021/10/20 07:21:39;;;;;;;9.73;4.13;;;;;;;;;;5966270;24;20097;-56
2021/10/20 07:24:07;;;;;;;11.43;3.58;;;;;;;;;;6016814;23;20043;-57
2021/10/20 07:26:35;;;;;;;10.73;3.42;;;;;;;;;;5965664;23;20054;-58
2021/10/20 07:29:01;;;;;;;7.80;4.03;;;;;;;;;;5969712;24;20026;-58
2021/10/20 07:31:30;;;;;;;8.02;3.40;;;;;;;;;;5957710;24;20035;-56
2021/10/20 07:33:56;;;;;;;8.18;3.92;;;;;;;;;;5952873;24;20038;-58
2021/10/20 07:36:23;;;;;;;10.90;4.18;;;;;;;;;;5946360;24;20120;-56
2021/10/20 07:38:50;;;;;;;11.52;4.60;;;;;;;;;;5969419;24;20066;-58
2021/10/20 07:41:20;;;;;;;7.30;3.20;;;;;;;;;;5967494;23;20030;-58
2021/10/20 07:43:47;;;;;;;11.35;4.22;;;;;;;;;;5969436;24;20026;-59
2021/10/20 07:46:13;;;;;;;9.95;3.63;;;;;;;;;;5990882;23;20062;-57
2021/10/20 07:48:40;;;;;;;8.95;4.18;;;;;;;;;;5942633;24;20026;-56
2021/10/20 07:51:07;;;;;;;14.32;4.50;;;;;;;;;;5965777;24;20030;-58
2021/10/20 07:53:33;;;;;;;8.93;3.42;;;;;;;;;;5965647;23;20067;-58
2021/10/20 07:56:00;;;;;;;9.23;4.28;;;;;;;;;;5972668;24;20045;-55
2021/10/20 07:58:28;;;;;;;12.25;4.82;;;;;;;;;;5967076;23;20066;-54
2021/10/20 08:00:54;;;;;;;8.77;4.32;;;;;;;;;;5998008;23;20033;-59
2021/10/20 08:03:21;;;;;;;11.27;4.07;;;;;;;;;;5970675;23;20034;-57
2021/10/20 08:05:48;;;;;;;17.98;5.32;;;;;;;;;;5964826;24;20050;-57
2021/10/20 08:08:15;;;;;;;8.68;4.20;;;;;;;;;;5952047;24;20030;-57
2021/10/20 08:10:41;;;;;;;10.38;4.03;;;;;;;;;;5967680;24;20092;-54
2021/10/20 08:13:08;;;;;;;11.60;3.83;;;;;;;;;;5945450;24;20049;-55
2021/10/20 08:15:39;;;;;;;9.57;4.28;;;;;;;;;;5964067;24;20046;-55
2021/10/20 08:18:05;;;;;;;8.82;3.95;;;;;;;;;;5962591;23;20037;-58
2021/10/20 08:20:34;;;;;;;8.82;4.40;;;;;;;;;;5967154;23;20042;-57
2021/10/20 08:23:00;;;;;;;;;;;;;;;;;;5964953;24;20041;-55
2021/10/20 08:25:27;;;;;;;11.60;4.13;;;;;;;;;;5967040;24;19924;-58
2021/10/20 08:27:55;;;;;;;7.75;4.13;;;;;;;;;;5964250;24;20045;-58
2021/10/20 08:30:22;;;;;;;12.50;5.50;;;;;;;;;;5968840;24;20045;-59
2021/10/20 08:32:55;;;;;;;9.07;4.47;;;;;;;;;;5967220;24;20030;-58
2021/10/20 08:35:22;;;;;;;9.93;5.00;;;;;;;;;;5966082;24;20030;-57
2021/10/20 08:37:54;;;;;;;11.27;4.70;;;;;;;;;;5994667;23;20092;-58
2021/10/20 08:40:23;;;;;;;11.20;4.55;;;;;;;;;;6011834;23;20053;-59
2021/10/20 08:42:50;;;;;;;8.05;4.20;;;;;;;;;;6017513;23;20030;-55
2021/10/20 08:45:18;;;;;;;8.55;4.63;;;;;;;;;;5966970;24;20042;-58
2021/10/20 08:47:47;;;;;;;7.93;3.90;;;;;;;;;;5967016;24;20034;-59
2021/10/20 08:50:13;;;;;;;;;;;;;;;;;;5990950;23;20037;-57
2021/10/20 08:52:41;;;;;;;8.25;4.18;;;;;;;;;;5966639;24;19917;-56
2021/10/20 08:55:08;;;;;;;10.32;4.72;;;;;;;;;;5967430;24;20066;-57
2021/10/20 08:57:36;;;;;;;10.13;4.43;;;;;;;;;;6002021;23;20036;-56
2021/10/20 09:00:05;;;;;;;10.23;4.60;;;;;;;;;;5952488;24;20045;-57
2021/10/20 09:02:36;;;;;;;8.77;4.28;;;;;;;;;;5964378;24;20026;-56
2021/10/20 09:05:03;;;;;;;12.73;5.65;;;;;;;;;;5971503;23;20029;-56
2021/10/20 09:07:30;;;;;;;13.45;5.18;;;;;;;;;;5969796;24;20049;-56
2021/10/20 09:09:58;;;;;;;13.50;4.85;;;;;;;;;;5959080;24;20034;-57
2021/10/20 09:12:26;;;;;;;11.27;4.90;;;;;;;;;;5958716;24;20109;-58
2021/10/20 09:14:56;;;;;;;9.10;4.45;;;;;;;;;;5972238;23;20289;-57
2021/10/20 09:17:23;;;;;;;15.55;5.32;;;;;;;;;;5971656;23;20034;-57
2021/10/20 09:19:50;;;;;;;12.85;6.25;;;;;;;;;;5991092;23;20036;-58
2021/10/20 09:22:17;;;;;;;10.30;4.55;;;;;;;;;;5968053;24;20041;-57
2021/10/20 09:24:44;;;;;;;10.45;5.07;;;;;;;;;;5980099;23;20034;-58
2021/10/20 09:27:20;;;;;;;10.18;4.55;;;;;;;;;;5964651;23;20034;-58
2021/10/20 09:29:46;;;;;;;11.93;5.10;;;;;;;;;;5961795;24;20026;-56
2021/10/20 09:32:13;;;;;;;11.18;5.35;;;;;;;;;;5955154;24;20089;-58
2021/10/20 09:34:40;;;;;;;13.85;5.38;;;;;;;;;;5985683;23;20034;-58
2021/10/20 09:37:07;;;;;;;11.98;5.50;;;;;;;;;;5967656;24;20026;-57
2021/10/20 09:39:34;;;;;;;11.82;5.07;;;;;;;;;;5961658;24;20034;-56
2021/10/20 09:42:07;;;;;;;9.25;4.85;;;;;;;;;;5960489;24;20022;-57
2021/10/20 09:44:45;;;;;;;11.63;5.38;;;;;;;;;;5994411;23;20026;-57
2021/10/20 09:47:12;;;;;;;10.85;5.32;;;;;;;;;;5964947;23;20034;-57
2021/10/20 09:49:46;;;;;;;10.10;5.32;;;;;;;;;;5990883;23;20058;-58
2021/10/20 09:52:12;;;;;;;11.35;5.47;;;;;;;;;;5979766;23;20045;-56
2021/10/20 09:54:41;;;;;;;11.50;5.68;;;;;;;;;;5964226;23;20034;-58
2021/10/20 09:57:08;;;;;;;12.77;5.28;;;;;;;;;;5961859;23;20030;-55
2021/10/20 09:59:34;;;;;;;12.85;5.05;;;;;;;;;;5964101;23;20102;-57
2021/10/20 10:02:02;;;;;;;11.75;5.65;;;;;;;;;;5964094;23;20030;-56
2021/10/20 10:04:29;;;;;;;15.40;6.07;;;;;;;;;;5988720;23;20032;-57
2021/10/20 10:06:59;;;;;;;12.52;5.78;;;;;;;;;;5964036;23;20328;-58
2021/10/20 10:09:25;;;;;;;10.43;5.22;;;;;;;;;;5968605;23;20026;-58
2021/10/20 10:11:53;;;;;;;15.57;6.38;;;;;;;;;;5988114;23;20049;-58
2021/10/20 10:14:21;;;;;;;11.15;5.90;;;;;;;;;;5965312;24;20066;-58
2021/10/20 10:16:48;;;;;;;;;;;;;;;;;;5969269;23;20081;-58
2021/10/20 10:19:17;;;;;;;13.27;4.70;;;;;;;;;;5988782;23;19925;-57
2021/10/20 10:21:46;;;;;;;10.80;5.50;;;;;;;;;;5965134;24;20028;-58
2021/10/20 10:24:14;;;;;;;8.75;4.70;;;;;;;;;;5967457;23;20045;-58
2021/10/20 10:26:55;;;;;;;9.25;4.65;;;;;;;;;;5988873;23;20041;-57
2021/10/20 10:29:22;;;;;;;10.05;4.80;;;;;;;;;;5954946;24;20058;-59
2021/10/20 10:31:51;;;;;;;12.88;5.57;;;;;;;;;;5981415;23;20058;-58
2021/10/20 10:34:20;;;;;;;9.32;4.72;;;;;;;;;;5963876;23;20038;-58
2021/10/20 10:36:51;;;;;;;10.93;4.93;;;;;;;;;;5969889;23;20026;-58
2021/10/20 10:39:18;;;;;;;9.93;4.68;;;;;;;;;;5935044;24;20070;-58
2021/10/20 10:41:46;;;;;;;11.07;4.75;;;;;;;;;;5984182;23;20112;-58
2021/10/20 10:44:13;;;;;;;12.20;4.93;;;;;;;;;;5937763;24;20026;-57
2021/10/20 10:46:41;;;;;;;13.03;5.07;;;;;;;;;;5972008;23;20045;-59
2021/10/20 10:49:35;;;;;;;11.85;4.20;;;;;;;;;;5934813;24;20041;-57
2021/10/20 10:52:19;;;;;;;11.35;4.40;;;;;;;;;;5962096;24;20030;-57
2021/10/20 10:55:00;;;;;;;10.52;4.53;;;;;;;;;;5963915;24;20042;-57
2021/10/20 10:57:40;;;;;;;11.40;5.68;;;;;;;;;;5963171;24;20038;-58
2021/10/20 11:00:07;;;;;;;9.10;4.38;;;;;;;;;;5984658;23;20038;-58
2021/10/20 11:02:39;;;;;;;8.77;4.47;;;;;;;;;;5977336;23;20034;-58
2021/10/20 11:05:07;;;;;;;9.23;4.43;;;;;;;;;;5955983;23;20082;-59
2021/10/20 11:07:34;;;;;;;8.02;3.60;;;;;;;;;;5989982;23;20060;-58
2021/10/20 11:10:01;;;;;;;12.65;4.63;;;;;;;;;;5981716;23;20054;-58
2021/10/20 11:12:29;;;;;;;10.63;4.20;;;;;;;;;;5980636;23;20085;-58
2021/10/20 11:14:55;;;;;;;10.40;4.13;;;;;;;;;;5962409;23;20049;-58
2021/10/20 11:17:23;;;;;;;10.00;4.50;;;;;;;;;;5974852;23;20381;-58
2021/10/20 11:19:49;;;;;;;9.93;3.58;;;;;;;;;;5959910;24;20078;-57
2021/10/20 11:22:18;;;;;;;12.18;3.85;;;;;;;;;;5963822;24;20044;-57
2021/10/20 11:24:46;;;;;;;14.10;4.90;;;;;;;;;;5962260;24;20038;-58
2021/10/20 11:27:21;;;;;;;9.77;4.13;;;;;;;;;;5975536;23;20105;-58
2021/10/20 11:29:48;;;;;;;10.98;4.32;;;;;;;;;;5963860;23;20123;-58
2021/10/20 11:32:16;;;;;;;10.65;4.50;;;;;;;;;;5987192;23;20072;-57
2021/10/20 11:34:44;;;;;;;7.65;4.28;;;;;;;;;;5966651;23;20041;-58
2021/10/20 11:37:11;;;;;;;8.95;4.63;;;;;;;;;;5974204;23;20030;-57
2021/10/20 11:39:39;;;;;;;11.13;3.95;;;;;;;;;;5961392;24;20046;-57
2021/10/20 11:42:09;;;;;;;13.75;4.68;;;;;;;;;;5957506;24;20049;-57
2021/10/20 11:44:41;;;;;;;7.72;3.83;;;;;;;;;;5966923;23;20090;-57
2021/10/20 11:47:09;;;;;;;11.15;4.40;;;;;;;;;;5960792;24;20058;-58
2021/10/20 11:49:36;;;;;;;8.55;4.28;;;;;;;;;;5963765;24;20045;-58
2021/10/20 11:52:04;;;;;;;11.80;4.60;;;;;;;;;;5965867;23;20042;-57
2021/10/20 11:54:30;;;;;;;7.82;4.07;;;;;;;;;;5987855;23;20050;-57
2021/10/20 11:57:05;;;;;;;11.02;4.47;;;;;;;;;;5965173;23;20026;-57
2021/10/20 11:59:31;;;;;;;9.52;4.50;;;;;;;;;;5986361;23;20033;-57
2021/10/20 12:02:00;;;;;;;8.90;4.28;;;;;;;;;;5964946;23;20041;-57
2021/10/20 12:04:26;;;;;;;8.10;4.18;;;;;;;;;;5963386;23;20045;-58
2021/10/20 12:06:55;;;;;;;7.78;4.15;;;;;;;;;;5950718;23;20046;-58
2021/10/20 12:09:23;;;;;;;9.32;4.28;;;;;;;;;;5972322;24;20088;-57
2021/10/20 12:11:50;;;;;;;9.15;4.57;;;;;;;;;;5965331;23;20048;-57
2021/10/20 12:14:19;;;;;;;9.77;4.80;;;;;;;;;;5967136;23;20182;-57
2021/10/20 12:16:47;;;;;;;10.95;4.20;;;;;;;;;;5965869;23;20022;-58
2021/10/20 12:19:15;;;;;;;10.02;4.45;;;;;;;;;;5970303;23;20030;-58
2021/10/20 12:21:42;;;;;;;14.47;4.60;;;;;;;;;;5995234;23;20030;-58
2021/10/20 12:24:09;;;;;;;10.40;4.03;;;;;;;;;;5976758;23;20030;-58
2021/10/20 12:26:38;;;;;;;8.40;4.38;;;;;;;;;;5969855;24;20037;-59
2021/10/20 12:29:05;;;;;;;9.05;4.57;;;;;;;;;;5966762;23;20049;-57
2021/10/20 12:31:33;;;;;;;9.98;4.70;;;;;;;;;;5972842;23;20026;-58
2021/10/20 12:33:59;;;;;;;9.63;4.32;;;;;;;;;;5991611;23;20037;-58
2021/10/20 12:36:27;;;;;;;12.93;4.25;;;;;;;;;;5970314;24;20132;-59
2021/10/20 12:38:54;;;;;;;9.40;4.28;;;;;;;;;;5963656;23;20036;-58
2021/10/20 12:41:24;;;;;;;10.77;5.32;;;;;;;;;;5995021;23;20042;-57
2021/10/20 12:43:51;;;;;;;8.25;3.60;;;;;;;;;;5965985;23;20161;-57
2021/10/20 12:46:20;;;;;;;14.85;4.15;;;;;;;;;;5969109;23;20057;-58
2021/10/20 12:48:49;;;;;;;9.02;4.72;;;;;;;;;;5962412;23;20037;-57
2021/10/20 12:51:20;;;;;;;9.30;4.10;;;;;;;;;;5990203;23;20093;-57
2021/10/20 12:53:47;;;;;;;7.70;3.72;;;;;;;;;;5964268;23;20047;-58
2021/10/20 12:56:14;;;;;;;9.82;4.40;;;;;;;;;;5970025;23;20077;-57
2021/10/20 12:58:41;;;;;;;10.07;3.90;;;;;;;;;;5966622;23;20034;-57
2021/10/20 13:01:10;;;;;;;7.85;3.80;;;;;;;;;;5968373;23;20031;-57
2021/10/20 13:03:37;;;;;;;9.82;4.40;;;;;;;;;;5951991;23;20069;-57
2021/10/20 13:06:06;;;;;;;11.00;4.47;;;;;;;;;;5934305;23;20044;-57
2021/10/20 13:08:37;;;;;;;15.70;5.65;;;;;;;;;;5969267;24;20047;-57
2021/10/20 13:11:04;;;;;;;8.77;4.28;;;;;;;;;;5973715;23;20052;-57
2021/10/20 13:13:30;;;;;;;14.93;4.43;;;;;;;;;;5994819;23;20037;-57
2021/10/20 13:15:59;;;;;;;14.75;5.22;;;;;;;;;;5962225;23;20109;-58
2021/10/20 13:18:29;;;;;;;11.90;4.88;;;;;;;;;;5997490;23;20042;-58
2021/10/20 13:20:55;;;;;;;16.38;3.95;;;;;;;;;;5966556;23;20026;-58
2021/10/20 13:23:23;;;;;;;12.55;4.10;;;;;;;;;;5996271;23;20041;-57
2021/10/20 13:25:49;;;;;;;18.10;3.42;;;;;;;;;;5967211;24;20045;-58
2021/10/20 13:28:16;;;;;;;6.15;2.60;;;;;;;;;;5968294;24;20034;-57
2021/10/20 13:30:42;;;;;;;7.35;2.20;;;;;;;;;;5967030;24;20131;-57
2021/10/20 13:33:09;;;;;;;10.20;2.00;;;;;;;;;;5969500;24;20038;-57
2021/10/20 13:35:36;;;;;;;9.52;1.85;;;;;;;;;;5966304;23;20141;-57
2021/10/20 13:38:06;;;;;;;6.88;2.08;;;;;;;;;;5996176;23;20034;-57
2021/10/20 13:40:35;;;;;;;7.22;1.75;;;;;;;;;;5966552;24;20044;-56
2021/10/20 13:43:01;;;;;;;4.68;1.90;;;;;;;;;;5971946;23;20037;-57
2021/10/20 13:45:27;;;;;;;12.00;2.72;;;;;;;;;;5967109;23;20052;-56
2021/10/20 13:47:54;;;;;;;7.72;2.83;;;;;;;;;;5994762;23;20030;-58
2021/10/20 13:50:20;;;;;;;9.48;3.15;;;;;;;;;;5968893;23;20038;-57
2021/10/20 13:52:48;;;;;;;10.48;3.30;;;;;;;;;;5968196;24;20037;-57
2021/10/20 13:55:17;;;;;;;12.17;4.53;;;;;;;;;;5971164;24;20034;-58
2021/10/20 13:57:46;;;;;;;12.60;4.30;;;;;;;;;;5964559;24;20280;-59
2021/10/20 14:00:13;;;;;;;9.57;3.92;;;;;;;;;;5971806;24;20046;-56
2021/10/20 14:02:39;;;;;;;12.02;4.57;;;;;;;;;;5967676;24;20046;-57
2021/10/20 14:05:06;;;;;;;9.15;4.15;;;;;;;;;;5986243;23;20045;-57
2021/10/20 14:07:33;;;;;;;10.27;3.90;;;;;;;;;;5962241;24;20035;-57
2021/10/20 14:10:01;;;;;;;8.95;3.90;;;;;;;;;;5966144;24;20055;-58
2021/10/20 14:12:28;;;;;;;7.22;3.00;;;;;;;;;;5965736;23;20127;-57
2021/10/20 14:14:56;;;;;;;7.55;2.90;;;;;;;;;;5967846;24;20025;-58
2021/10/20 14:17:23;;;;;;;6.32;2.40;;;;;;;;;;5964058;23;20048;-53
2021/10/20 14:19:50;;;;;;;7.45;2.80;;;;;;;;;;5969974;24;20030;-57
2021/10/20 14:22:17;;;;;;;6.75;2.75;;;;;;;;;;5963177;24;20042;-57
2021/10/20 14:24:44;;;;;;;10.20;3.53;;;;;;;;;;5966802;23;20099;-58
2021/10/20 14:27:12;;;;;;;9.45;3.88;;;;;;;;;;5967715;23;20140;-57
2021/10/20 14:29:39;;;;;;;7.85;3.22;;;;;;;;;;5968304;23;20038;-57
2021/10/20 14:32:08;;;;;;;7.15;3.25;;;;;;;;;;5958490;23;20037;-54
2021/10/20 14:34:34;;;;;;;12.00;3.80;;;;;;;;;;5968719;24;20120;-58
2021/10/20 14:37:01;;;;;;;6.25;2.47;;;;;;;;;;5970193;23;20037;-58
2021/10/20 14:39:30;;;;;;;8.50;2.85;;;;;;;;;;5962576;24;20089;-58